createdAt,value
2022-12-04T00:00:43.987Z,99290.00
2022-12-04T00:01:53.624Z,99292.27
2022-12-04T00:02:55.447Z,99294.44
2022-12-04T00:03:59.817Z,99295.26
2022-12-04T00:05:03.788Z,99292.61
2022-12-04T00:06:15.008Z,99293.92
2022-12-04T00:07:17.208Z,99296.56
2022-12-04T00:08:18.955Z,99288.73
2022-12-04T00:09:20.715Z,99293.07
2022-12-04T00:10:22.471Z,99291.34
2022-12-04T00:11:27.883Z,99290.66
2022-12-04T00:12:29.649Z,99287.66
2022-12-04T00:13:32.223Z,99289.50
2022-12-04T00:14:34.496Z,99291.88
2022-12-04T00:15:41.636Z,99291.80
2022-12-04T00:16:43.461Z,99297.58
2022-12-04T00:17:48.580Z,99296.05
2022-12-04T00:18:50.597Z,99296.59
2022-12-04T00:19:52.579Z,99298.98
2022-12-04T00:20:54.722Z,99297.38
2022-12-04T00:21:56.473Z,99295.41
2022-12-04T00:22:58.205Z,99300.65
2022-12-04T00:24:00.029Z,99298.89
2022-12-04T00:25:01.804Z,99300.07
2022-12-04T00:26:09.275Z,99297.83
2022-12-04T00:27:10.995Z,99298.45
2022-12-04T00:28:13.536Z,99297.70
2022-12-04T00:29:15.332Z,99297.13
2022-12-04T00:30:17.212Z,99298.14
2022-12-04T00:31:22.505Z,99296.36
2022-12-04T00:32:24.334Z,99297.34
2022-12-04T00:33:26.700Z,99291.71
2022-12-04T00:34:28.503Z,99298.03
2022-12-04T00:35:30.255Z,99297.99
2022-12-04T00:36:32.145Z,99297.95
2022-12-04T00:37:34.289Z,99302.64
2022-12-04T00:38:37.687Z,99298.48
2022-12-04T00:39:39.427Z,99297.83
2022-12-04T00:40:49.307Z,99298.25
2022-12-04T00:41:51.001Z,99296.73
2022-12-04T00:42:53.162Z,99300.30
2022-12-04T00:43:55.125Z,99302.71
2022-12-04T00:44:56.874Z,99300.33
2022-12-04T00:45:59.010Z,99301.98
2022-12-04T00:47:00.848Z,99302.44
2022-12-04T00:48:02.586Z,99306.36
2022-12-04T00:49:04.425Z,99311.14
2022-12-04T00:50:07.318Z,99313.60
2022-12-04T00:51:12.459Z,99314.04
2022-12-04T00:52:14.249Z,99315.23
2022-12-04T00:53:16.333Z,99310.09
2022-12-04T00:54:18.142Z,99311.96
2022-12-04T00:55:19.981Z,99307.79
2022-12-04T00:56:24.929Z,99306.47
2022-12-04T00:57:26.754Z,99303.30
2022-12-04T00:58:28.462Z,99304.60
2022-12-04T00:59:30.196Z,99303.17
2022-12-04T01:00:32.082Z,99298.59
2022-12-04T01:01:33.890Z,99298.55
2022-12-04T01:02:35.816Z,99297.25
2022-12-04T01:03:38.243Z,99296.63
2022-12-04T01:04:39.955Z,99291.98
2022-12-04T01:05:44.946Z,99291.23
2022-12-04T01:06:47.352Z,99287.00
2022-12-04T01:07:49.299Z,99287.86
2022-12-04T01:08:53.207Z,99286.64
2022-12-04T01:09:55.301Z,99284.00
2022-12-04T01:10:57.542Z,99284.06
2022-12-04T01:11:59.615Z,99288.02
2022-12-04T01:13:01.471Z,99287.63
2022-12-04T01:14:03.441Z,99286.23
2022-12-04T01:15:06.010Z,99288.23
2022-12-04T01:16:07.845Z,99291.64
2022-12-04T01:17:09.611Z,99290.48
2022-12-04T01:18:12.418Z,99289.33
2022-12-04T01:19:14.207Z,99287.16
2022-12-04T01:20:17.361Z,99287.20
2022-12-04T01:21:19.892Z,99284.70
2022-12-04T01:22:21.624Z,99285.48
2022-12-04T01:23:23.343Z,99284.45
2022-12-04T01:24:25.145Z,99283.91
2022-12-04T01:25:27.034Z,99280.35
2022-12-04T01:26:29.242Z,99281.48
2022-12-04T01:27:31.031Z,99281.27
2022-12-04T01:28:32.872Z,99279.52
2022-12-04T01:29:34.808Z,99278.70
2022-12-04T01:30:36.644Z,99277.30
2022-12-04T01:31:38.519Z,99276.48
2022-12-04T01:32:40.327Z,99272.39
2022-12-04T01:33:42.801Z,99271.69
2022-12-04T01:34:44.558Z,99266.48
2022-12-04T01:35:53.588Z,99265.33
2022-12-04T01:36:55.345Z,99262.59
2022-12-04T01:37:57.070Z,99261.77
2022-12-04T01:38:58.903Z,99262.27
2022-12-04T01:40:00.756Z,99261.80
2022-12-04T01:41:02.754Z,99258.58
2022-12-04T01:42:05.125Z,99258.11
2022-12-04T01:43:09.741Z,99262.36
2022-12-04T01:44:21.812Z,99258.98
2022-12-04T01:45:37.846Z,99257.56
2022-12-04T01:46:41.409Z,99256.26
2022-12-04T01:47:43.195Z,99256.18
2022-12-04T01:48:52.564Z,99253.40
2022-12-04T01:49:54.717Z,99255.69
2022-12-04T01:51:24.650Z,99253.52
2022-12-04T01:52:26.742Z,99253.40
2022-12-04T01:53:30.692Z,99250.25
2022-12-04T01:54:37.442Z,99254.99
2022-12-04T01:55:39.401Z,99251.75
2022-12-04T01:56:49.031Z,99248.29
2022-12-04T01:57:50.946Z,99252.13
2022-12-04T01:58:58.009Z,99253.11
2022-12-04T02:00:07.435Z,99255.85
2022-12-04T02:01:10.330Z,99254.50
2022-12-04T02:02:16.128Z,99253.02
2022-12-04T02:03:18.201Z,99250.85
2022-12-04T02:04:20.730Z,99249.19
2022-12-04T02:05:23.100Z,99246.00
2022-12-04T02:06:24.876Z,99245.05
2022-12-04T02:07:27.627Z,99241.60
2022-12-04T02:08:30.767Z,99237.61
2022-12-04T02:09:34.823Z,99239.13
2022-12-04T02:10:46.587Z,99232.38
2022-12-04T02:12:22.655Z,99228.16
2022-12-04T02:13:36.605Z,99225.59
2022-12-04T02:14:48.460Z,99224.98
2022-12-04T02:16:08.255Z,99223.49
2022-12-04T02:17:27.638Z,99222.39
2022-12-04T02:18:46.449Z,99222.10
2022-12-04T02:20:09.711Z,99219.92
2022-12-04T02:21:32.108Z,99222.67
2022-12-04T02:23:03.631Z,99222.14
2022-12-04T02:24:22.558Z,99227.90
2022-12-04T02:25:43.037Z,99226.64
2022-12-04T02:27:01.251Z,99227.41
2022-12-04T02:28:23.018Z,99230.05
2022-12-04T02:29:39.512Z,99229.39
2022-12-04T02:30:44.291Z,99229.52
2022-12-04T02:31:56.371Z,99234.76
2022-12-04T02:33:05.543Z,99237.42
2022-12-04T02:34:16.437Z,99239.83
2022-12-04T02:35:34.446Z,99240.84
2022-12-04T02:36:49.101Z,99244.52
2022-12-04T02:38:00.316Z,99245.94
2022-12-04T02:39:15.648Z,99242.80
2022-12-04T02:40:35.850Z,99247.79
2022-12-04T02:41:49.611Z,99253.88
2022-12-04T02:43:03.550Z,99247.94
2022-12-04T02:44:25.930Z,99252.98
2022-12-04T02:45:47.203Z,99256.87
2022-12-04T02:46:56.010Z,99259.53
2022-12-04T02:48:03.105Z,99260.61
2022-12-04T02:49:12.081Z,99255.66
2022-12-04T02:50:18.834Z,99263.12
2022-12-04T02:51:27.142Z,99260.49
2022-12-04T02:52:41.768Z,99261.89
2022-12-04T02:53:50.771Z,99257.47
2022-12-04T02:55:04.107Z,99254.61
2022-12-04T02:56:14.442Z,99250.73
2022-12-04T02:57:27.002Z,99246.64
2022-12-04T02:58:34.644Z,99246.29
2022-12-04T02:59:42.294Z,99243.16
2022-12-04T03:00:48.017Z,99248.33
2022-12-04T03:01:57.484Z,99250.19
2022-12-04T03:03:06.496Z,99252.66
2022-12-04T03:04:16.773Z,99253.64
2022-12-04T03:05:24.519Z,99253.48
2022-12-04T03:06:31.927Z,99249.84
2022-12-04T03:07:45.270Z,99251.81
2022-12-04T03:08:57.109Z,99250.59
2022-12-04T03:10:13.582Z,99245.88
2022-12-04T03:11:15.870Z,99246.21
2022-12-04T03:12:34.875Z,99243.64
2022-12-04T03:13:44.840Z,99237.90
2022-12-04T03:15:16.279Z,99240.36
2022-12-04T03:16:24.181Z,99241.34
2022-12-04T03:17:36.449Z,99240.16
2022-12-04T03:18:42.280Z,99243.14
2022-12-04T03:19:50.516Z,99241.98
2022-12-04T03:21:03.007Z,99241.66
2022-12-04T03:22:14.251Z,99244.00
2022-12-04T03:23:23.863Z,99244.94
2022-12-04T03:24:40.590Z,99245.73
2022-12-04T03:25:54.628Z,99244.18
2022-12-04T03:27:05.628Z,99241.65
2022-12-04T03:28:22.491Z,99234.24
2022-12-04T03:29:49.957Z,99230.20
2022-12-04T03:31:01.115Z,99230.96
2022-12-04T03:32:39.404Z,99236.35
2022-12-04T03:33:47.643Z,99240.98
2022-12-04T03:35:05.102Z,99246.90
2022-12-04T03:36:27.157Z,99246.85
2022-12-04T03:37:55.070Z,99241.35
2022-12-04T03:39:18.191Z,99241.14
2022-12-04T03:40:25.717Z,99240.19
2022-12-04T03:42:17.851Z,99242.11
2022-12-04T03:43:40.353Z,99249.67
2022-12-04T03:44:58.333Z,99246.16
2022-12-04T03:46:24.595Z,99245.14
2022-12-04T03:47:37.216Z,99247.92
2022-12-04T03:48:45.283Z,99246.04
2022-12-04T03:50:02.627Z,99246.25
2022-12-04T03:51:14.925Z,99242.77
2022-12-04T03:52:47.745Z,99245.15
2022-12-04T03:54:05.208Z,99244.42
2022-12-04T03:55:41.595Z,99245.21
2022-12-04T03:56:51.708Z,99238.30
2022-12-04T03:58:00.012Z,99238.67
2022-12-04T03:59:16.382Z,99240.11
2022-12-04T04:00:21.920Z,99239.24
2022-12-04T04:01:32.569Z,99239.25
2022-12-04T04:02:47.487Z,99241.21
2022-12-04T04:03:56.246Z,99245.71
2022-12-04T04:05:02.928Z,99245.34
2022-12-04T04:06:13.561Z,99249.10
2022-12-04T04:07:35.270Z,99249.60
2022-12-04T04:08:45.769Z,99249.72
2022-12-04T04:09:54.871Z,99251.44
2022-12-04T04:11:13.019Z,99249.48
2022-12-04T04:12:20.903Z,99248.58
2022-12-04T04:13:56.751Z,99245.96
2022-12-04T04:15:34.448Z,99246.77
2022-12-04T04:17:02.036Z,99243.38
2022-12-04T04:18:22.478Z,99247.80
2022-12-04T04:19:48.942Z,99253.69
2022-12-04T04:21:17.939Z,99253.58
2022-12-04T04:22:42.511Z,99253.39
2022-12-04T04:24:08.643Z,99253.39
2022-12-04T04:25:15.773Z,99255.64
2022-12-04T04:26:18.542Z,99259.55
2022-12-04T04:27:20.311Z,99255.65
2022-12-04T04:28:35.210Z,99255.06
2022-12-04T04:29:38.828Z,99255.89
2022-12-04T04:30:41.012Z,99254.97
2022-12-04T04:31:56.186Z,99251.52
2022-12-04T04:33:13.408Z,99253.39
2022-12-04T04:34:41.884Z,99252.08
2022-12-04T04:36:22.544Z,99255.55
2022-12-04T04:37:42.376Z,99255.94
2022-12-04T04:38:56.754Z,99256.89
2022-12-04T04:40:33.077Z,99256.95
2022-12-04T04:41:46.750Z,99255.86
2022-12-04T04:43:06.962Z,99254.43
2022-12-04T04:44:16.172Z,99251.56
2022-12-04T04:45:34.019Z,99248.19
2022-12-04T04:46:44.581Z,99249.73
2022-12-04T04:48:13.664Z,99249.27
2022-12-04T04:49:19.371Z,99245.30
2022-12-04T04:50:23.100Z,99243.73
2022-12-04T04:51:28.120Z,99241.03
2022-12-04T04:52:31.912Z,99239.69
2022-12-04T04:53:41.737Z,99249.13
2022-12-04T04:54:45.023Z,99246.70
2022-12-04T04:55:48.445Z,99248.20
2022-12-04T04:56:50.246Z,99245.84
2022-12-04T04:57:52.010Z,99249.44
2022-12-04T04:58:53.778Z,99244.89
2022-12-04T04:59:55.789Z,99249.09
2022-12-04T05:01:05.369Z,99247.86
2022-12-04T05:02:07.337Z,99247.96
2022-12-04T05:03:10.184Z,99248.86
2022-12-04T05:04:12.015Z,99246.89
2022-12-04T05:05:14.129Z,99246.80
2022-12-04T05:06:15.923Z,99247.42
2022-12-04T05:07:17.723Z,99247.31
2022-12-04T05:08:19.606Z,99249.39
2022-12-04T05:09:21.417Z,99245.77
2022-12-04T05:10:24.040Z,99250.34
2022-12-04T05:11:25.861Z,99248.63
2022-12-04T05:12:27.745Z,99246.38
2022-12-04T05:13:30.991Z,99249.39
2022-12-04T05:14:32.718Z,99250.45
2022-12-04T05:15:34.561Z,99248.58
2022-12-04T05:16:38.804Z,99251.94
2022-12-04T05:17:40.677Z,99252.77
2022-12-04T05:19:06.063Z,99254.89
2022-12-04T05:20:08.230Z,99256.85
2022-12-04T05:21:19.471Z,99257.30
2022-12-04T05:22:32.813Z,99254.67
2022-12-04T05:23:34.999Z,99255.89
2022-12-04T05:24:36.743Z,99253.06
2022-12-04T05:25:38.500Z,99248.94
2022-12-04T05:26:40.234Z,99252.94
2022-12-04T05:27:42.020Z,99252.54
2022-12-04T05:28:43.787Z,99251.69
2022-12-04T05:29:45.564Z,99254.98
2022-12-04T05:30:55.208Z,99247.09
2022-12-04T05:31:57.056Z,99253.25
2022-12-04T05:32:58.851Z,99246.13
2022-12-04T05:34:00.641Z,99244.86
2022-12-04T05:35:07.710Z,99243.73
2022-12-04T05:36:13.425Z,99243.89
2022-12-04T05:37:15.243Z,99244.14
2022-12-04T05:38:16.962Z,99245.80
2022-12-04T05:39:19.105Z,99242.88
2022-12-04T05:40:21.107Z,99241.73
2022-12-04T05:41:23.193Z,99246.84
2022-12-04T05:42:25.045Z,99243.20
2022-12-04T05:43:27.583Z,99247.98
2022-12-04T05:44:29.429Z,99247.06
2022-12-04T05:45:31.183Z,99250.33
2022-12-04T05:46:32.976Z,99250.98
2022-12-04T05:47:39.976Z,99248.88
2022-12-04T05:48:41.795Z,99250.54
2022-12-04T05:49:43.579Z,99246.09
2022-12-04T05:50:45.276Z,99246.70
2022-12-04T05:51:47.006Z,99246.27
2022-12-04T05:52:48.746Z,99245.84
2022-12-04T05:53:51.937Z,99244.48
2022-12-04T05:54:53.665Z,99242.34
2022-12-04T05:56:00.928Z,99242.39
2022-12-04T05:57:02.760Z,99242.21
2022-12-04T05:58:04.684Z,99245.94
2022-12-04T05:59:06.612Z,99243.19
2022-12-04T06:00:08.927Z,99242.98
2022-12-04T06:01:17.825Z,99240.77
2022-12-04T06:02:19.695Z,99238.67
2022-12-04T06:03:22.765Z,99236.80
2022-12-04T06:04:24.844Z,99237.65
2022-12-04T06:05:26.688Z,99233.72
2022-12-04T06:06:28.464Z,99236.30
2022-12-04T06:07:30.220Z,99240.40
2022-12-04T06:08:32.257Z,99246.05
2022-12-04T06:09:34.083Z,99241.14
2022-12-04T06:10:35.968Z,99244.52
2022-12-04T06:11:40.866Z,99249.63
2022-12-04T06:12:43.041Z,99253.16
2022-12-04T06:13:46.096Z,99253.70
2022-12-04T06:14:47.869Z,99252.84
2022-12-04T06:15:49.613Z,99258.56
2022-12-04T06:16:51.434Z,99257.00
2022-12-04T06:17:53.291Z,99256.64
2022-12-04T06:18:58.486Z,99252.88
2022-12-04T06:20:00.727Z,99256.15
2022-12-04T06:21:02.788Z,99255.90
2022-12-04T06:22:04.690Z,99254.04
2022-12-04T06:23:06.481Z,99250.84
2022-12-04T06:24:13.304Z,99251.92
2022-12-04T06:25:15.118Z,99250.35
2022-12-04T06:26:17.020Z,99255.73
2022-12-04T06:27:28.049Z,99253.55
2022-12-04T06:28:31.049Z,99258.63
2022-12-04T06:29:33.426Z,99261.95
2022-12-04T06:30:35.240Z,99265.80
2022-12-04T06:31:38.270Z,99264.15
2022-12-04T06:32:40.113Z,99265.68
2022-12-04T06:33:42.591Z,99264.15
2022-12-04T06:34:44.423Z,99260.66
2022-12-04T06:35:46.439Z,99263.02
2022-12-04T06:36:48.280Z,99263.92
2022-12-04T06:37:50.039Z,99262.73
2022-12-04T06:38:52.430Z,99261.64
2022-12-04T06:39:54.757Z,99264.10
2022-12-04T06:40:57.183Z,99265.61
2022-12-04T06:41:58.925Z,99261.48
2022-12-04T06:43:00.659Z,99264.02
2022-12-04T06:44:02.751Z,99263.27
2022-12-04T06:45:05.318Z,99267.29
2022-12-04T06:46:25.705Z,99266.48
2022-12-04T06:47:27.534Z,99271.58
2022-12-04T06:48:30.249Z,99274.23
2022-12-04T06:49:32.060Z,99266.80
2022-12-04T06:50:33.784Z,99268.73
2022-12-04T06:51:37.431Z,99269.11
2022-12-04T06:52:39.285Z,99264.58
2022-12-04T06:53:42.594Z,99270.85
2022-12-04T06:54:44.347Z,99267.20
2022-12-04T06:55:48.908Z,99265.91
2022-12-04T06:56:50.635Z,99267.95
2022-12-04T06:57:52.511Z,99268.46
2022-12-04T06:58:56.670Z,99269.15
2022-12-04T06:59:58.632Z,99274.14
2022-12-04T07:01:10.184Z,99268.98
2022-12-04T07:02:12.119Z,99268.15
2022-12-04T07:03:14.120Z,99266.90
2022-12-04T07:04:15.955Z,99267.79
2022-12-04T07:05:17.679Z,99268.33
2022-12-04T07:06:21.031Z,99269.53
2022-12-04T07:07:23.398Z,99270.93
2022-12-04T07:08:25.143Z,99269.05
2022-12-04T07:09:26.890Z,99267.91
2022-12-04T07:10:28.666Z,99269.31
2022-12-04T07:11:30.979Z,99271.23
2022-12-04T07:12:32.988Z,99275.70
2022-12-04T07:13:35.048Z,99273.23
2022-12-04T07:14:36.800Z,99274.18
2022-12-04T07:15:38.702Z,99275.24
2022-12-04T07:16:42.671Z,99271.04
2022-12-04T07:17:44.766Z,99270.56
2022-12-04T07:18:50.333Z,99274.88
2022-12-04T07:19:52.190Z,99270.42
2022-12-04T07:20:53.917Z,99266.59
2022-12-04T07:21:55.688Z,99266.71
2022-12-04T07:23:00.262Z,99263.92
2022-12-04T07:24:05.228Z,99265.85
2022-12-04T07:25:07.481Z,99265.96
2022-12-04T07:26:12.123Z,99265.37
2022-12-04T07:27:13.933Z,99265.49
2022-12-04T07:28:15.993Z,99263.24
2022-12-04T07:29:17.810Z,99263.80
2022-12-04T07:30:19.633Z,99259.51
2022-12-04T07:31:24.369Z,99260.81
2022-12-04T07:32:26.166Z,99262.98
2022-12-04T07:33:27.942Z,99261.08
2022-12-04T07:34:30.125Z,99261.26
2022-12-04T07:35:32.135Z,99260.58
2022-12-04T07:36:34.045Z,99262.70
2022-12-04T07:37:36.745Z,99262.13
2022-12-04T07:38:38.526Z,99258.81
2022-12-04T07:39:40.401Z,99260.84
2022-12-04T07:40:42.129Z,99261.38
2022-12-04T07:41:43.835Z,99263.15
2022-12-04T07:42:45.619Z,99262.95
2022-12-04T07:43:47.973Z,99263.60
2022-12-04T07:44:49.848Z,99265.98
2022-12-04T07:45:52.175Z,99265.09
2022-12-04T07:46:53.988Z,99263.17
2022-12-04T07:47:55.736Z,99266.73
2022-12-04T07:49:00.127Z,99266.98
2022-12-04T07:50:02.603Z,99269.71
2022-12-04T07:51:08.122Z,99268.98
2022-12-04T07:52:09.913Z,99266.23
2022-12-04T07:53:11.723Z,99267.37
2022-12-04T07:54:13.863Z,99272.20
2022-12-04T07:55:20.121Z,99271.75
2022-12-04T07:56:24.691Z,99270.36
2022-12-04T07:57:28.383Z,99270.77
2022-12-04T07:58:30.227Z,99269.98
2022-12-04T07:59:32.035Z,99272.70
2022-12-04T08:00:33.904Z,99273.91
2022-12-04T08:01:35.749Z,99272.58
2022-12-04T08:02:37.566Z,99273.50
2022-12-04T08:03:47.108Z,99272.94
2022-12-04T08:04:49.743Z,99274.73
2022-12-04T08:05:51.526Z,99272.17
2022-12-04T08:06:53.339Z,99276.39
2022-12-04T08:07:55.162Z,99277.00
2022-12-04T08:08:57.526Z,99277.73
2022-12-04T08:09:59.356Z,99280.64
2022-12-04T08:11:07.144Z,99279.85
2022-12-04T08:12:08.907Z,99279.56
2022-12-04T08:13:10.653Z,99281.70
2022-12-04T08:14:12.451Z,99279.20
2022-12-04T08:15:14.282Z,99285.64
2022-12-04T08:16:16.296Z,99286.83
2022-12-04T08:17:18.189Z,99284.80
2022-12-04T08:18:19.987Z,99281.27
2022-12-04T08:19:22.552Z,99283.66
2022-12-04T08:20:24.385Z,99279.34
2022-12-04T08:21:29.205Z,99280.20
2022-12-04T08:22:30.931Z,99280.70
2022-12-04T08:23:32.797Z,99280.21
2022-12-04T08:24:34.559Z,99280.89
2022-12-04T08:25:41.358Z,99281.27
2022-12-04T08:26:43.117Z,99280.44
2022-12-04T08:27:47.749Z,99281.79
2022-12-04T08:28:53.716Z,99282.94
2022-12-04T08:29:55.700Z,99284.52
2022-12-04T08:31:04.556Z,99282.92
2022-12-04T08:32:06.477Z,99286.59
2022-12-04T08:33:08.258Z,99290.15
2022-12-04T08:34:10.047Z,99285.90
2022-12-04T08:35:11.834Z,99290.85
2022-12-04T08:36:16.670Z,99288.93
2022-12-04T08:37:18.514Z,99290.90
2022-12-04T08:38:20.297Z,99287.52
2022-12-04T08:39:22.106Z,99291.83
2022-12-04T08:40:23.867Z,99290.77
2022-12-04T08:41:27.283Z,99292.45
2022-12-04T08:42:29.315Z,99292.25
2022-12-04T08:43:31.719Z,99293.89
2022-12-04T08:44:33.508Z,99291.38
2022-12-04T08:45:35.423Z,99289.72
2022-12-04T08:46:38.791Z,99295.70
2022-12-04T08:47:40.635Z,99289.81
2022-12-04T08:48:43.052Z,99293.52
2022-12-04T08:49:44.814Z,99293.30
2022-12-04T08:50:46.609Z,99298.11
2022-12-04T08:51:48.392Z,99293.77
2022-12-04T08:52:50.222Z,99295.08
2022-12-04T08:53:57.404Z,99295.08
2022-12-04T08:54:59.430Z,99290.19
2022-12-04T08:56:01.438Z,99288.08
2022-12-04T08:57:03.687Z,99289.15
2022-12-04T08:58:05.865Z,99288.21
2022-12-04T08:59:07.649Z,99288.70
2022-12-04T09:00:09.728Z,99286.17
2022-12-04T09:01:13.862Z,99285.77
2022-12-04T09:02:16.700Z,99289.75
2022-12-04T09:03:24.760Z,99292.24
2022-12-04T09:04:29.449Z,99290.56
2022-12-04T09:05:31.555Z,99294.37
2022-12-04T09:06:33.513Z,99297.03
2022-12-04T09:07:35.393Z,99297.23
2022-12-04T09:08:38.248Z,99297.14
2022-12-04T09:09:44.909Z,99292.90
2022-12-04T09:10:49.680Z,99292.67
2022-12-04T09:11:51.417Z,99294.81
2022-12-04T09:12:53.159Z,99293.38
2022-12-04T09:13:55.881Z,99291.50
2022-12-04T09:14:57.734Z,99287.39
2022-12-04T09:15:59.573Z,99285.71
2022-12-04T09:17:01.424Z,99288.73
2022-12-04T09:18:03.190Z,99283.64
2022-12-04T09:19:05.261Z,99280.77
2022-12-04T09:20:08.745Z,99279.70
2022-12-04T09:21:14.766Z,99278.07
2022-12-04T09:22:16.576Z,99274.52
2022-12-04T09:23:18.323Z,99278.50
2022-12-04T09:24:20.157Z,99280.61
2022-12-04T09:25:22.094Z,99282.17
2022-12-04T09:26:30.777Z,99285.92
2022-12-04T09:27:37.582Z,99285.41
2022-12-04T09:28:39.392Z,99285.70
2022-12-04T09:29:41.171Z,99287.52
2022-12-04T09:30:42.947Z,99288.48
2022-12-04T09:31:44.856Z,99283.08
2022-12-04T09:32:46.657Z,99285.63
2022-12-04T09:33:48.698Z,99286.96
2022-12-04T09:34:52.811Z,99285.33
2022-12-04T09:35:55.229Z,99290.29
2022-12-04T09:36:57.336Z,99286.15
2022-12-04T09:37:59.322Z,99285.72
2022-12-04T09:39:01.128Z,99284.23
2022-12-04T09:40:05.064Z,99283.16
2022-12-04T09:41:24.791Z,99284.45
2022-12-04T09:42:46.646Z,99280.61
2022-12-04T09:44:23.548Z,99283.86
2022-12-04T09:45:27.202Z,99283.06
2022-12-04T09:46:33.191Z,99282.36
2022-12-04T09:47:42.795Z,99279.33
2022-12-04T09:48:48.715Z,99276.99
2022-12-04T09:50:03.156Z,99276.47
2022-12-04T09:51:16.465Z,99274.95
2022-12-04T09:52:52.993Z,99270.04
2022-12-04T09:54:09.774Z,99266.59
2022-12-04T09:55:30.571Z,99259.09
2022-12-04T09:56:32.830Z,99262.56
2022-12-04T09:58:02.685Z,99260.10
2022-12-04T09:59:22.308Z,99258.02
2022-12-04T10:00:24.413Z,99254.65
2022-12-04T10:01:51.433Z,99256.55
2022-12-04T10:03:03.716Z,99252.32
2022-12-04T10:04:06.716Z,99250.25
2022-12-04T10:05:39.671Z,99247.09
2022-12-04T10:07:04.915Z,99248.47
2022-12-04T10:08:22.456Z,99248.42
2022-12-04T10:09:32.255Z,99248.44
2022-12-04T10:10:43.083Z,99249.91
2022-12-04T10:11:56.601Z,99249.08
2022-12-04T10:13:16.365Z,99248.05
2022-12-04T10:14:49.843Z,99244.89
2022-12-04T10:16:24.110Z,99241.88
2022-12-04T10:17:42.279Z,99237.59
2022-12-04T10:19:06.855Z,99238.52
2022-12-04T10:20:28.843Z,99238.19
2022-12-04T10:21:40.024Z,99231.74
2022-12-04T10:23:12.287Z,99235.91
2022-12-04T10:24:40.528Z,99233.58
2022-12-04T10:25:43.737Z,99236.77
2022-12-04T10:26:48.459Z,99236.05
2022-12-04T10:28:01.520Z,99235.80
2022-12-04T10:29:08.439Z,99238.98
2022-12-04T10:30:14.406Z,99238.30
2022-12-04T10:31:16.425Z,99237.53
2022-12-04T10:32:25.804Z,99237.52
2022-12-04T10:33:41.460Z,99235.83
2022-12-04T10:34:45.959Z,99233.20
2022-12-04T10:35:52.717Z,99231.46
2022-12-04T10:37:01.842Z,99230.96
2022-12-04T10:38:25.828Z,99230.55
2022-12-04T10:39:37.565Z,99231.89
2022-12-04T10:40:52.248Z,99230.92
2022-12-04T10:42:01.658Z,99230.96
2022-12-04T10:43:11.483Z,99232.24
2022-12-04T10:44:16.719Z,99226.95
2022-12-04T10:45:20.105Z,99225.52
2022-12-04T10:46:27.208Z,99227.16
2022-12-04T10:47:29.133Z,99227.20
2022-12-04T10:48:37.891Z,99224.64
2022-12-04T10:49:39.831Z,99223.50
2022-12-04T10:50:41.746Z,99223.38
2022-12-04T10:51:46.220Z,99222.12
2022-12-04T10:52:48.649Z,99219.91
2022-12-04T10:53:51.353Z,99222.77
2022-12-04T10:55:00.081Z,99223.96
2022-12-04T10:56:23.552Z,99223.67
2022-12-04T10:57:39.842Z,99227.80
2022-12-04T10:58:41.895Z,99232.78
2022-12-04T10:59:56.177Z,99233.91
2022-12-04T11:01:07.015Z,99239.30
2022-12-04T11:02:25.794Z,99238.57
2022-12-04T11:03:29.695Z,99239.98
2022-12-04T11:04:35.040Z,99241.27
2022-12-04T11:05:46.091Z,99241.70
2022-12-04T11:06:52.526Z,99238.05
2022-12-04T11:07:56.207Z,99237.15
2022-12-04T11:08:59.824Z,99235.84
2022-12-04T11:10:17.584Z,99240.26
2022-12-04T11:11:33.486Z,99239.77
2022-12-04T11:12:35.309Z,99241.88
2022-12-04T11:13:38.120Z,99237.40
2022-12-04T11:14:44.032Z,99240.05
2022-12-04T11:15:55.057Z,99239.52
2022-12-04T11:17:06.457Z,99237.14
2022-12-04T11:18:19.306Z,99234.64
2022-12-04T11:19:27.823Z,99237.26
2022-12-04T11:20:29.635Z,99239.46
2022-12-04T11:21:32.743Z,99239.87
2022-12-04T11:22:57.648Z,99237.42
2022-12-04T11:23:59.545Z,99236.36
2022-12-04T11:25:01.821Z,99239.24
2022-12-04T11:26:06.177Z,99237.01
2022-12-04T11:27:20.495Z,99234.96
2022-12-04T11:28:44.547Z,99235.33
2022-12-04T11:29:48.772Z,99235.27
2022-12-04T11:30:57.691Z,99234.73
2022-12-04T11:32:07.111Z,99230.80
2022-12-04T11:33:23.746Z,99233.26
2022-12-04T11:34:36.378Z,99232.23
2022-12-04T11:35:38.240Z,99228.29
2022-12-04T11:36:41.943Z,99230.42
2022-12-04T11:37:55.573Z,99226.20
2022-12-04T11:39:29.269Z,99229.60
2022-12-04T11:40:31.264Z,99233.55
2022-12-04T11:41:33.811Z,99230.84
2022-12-04T11:42:35.538Z,99234.15
2022-12-04T11:43:37.947Z,99238.32
2022-12-04T11:44:40.348Z,99237.03
2022-12-04T11:45:53.372Z,99236.70
2022-12-04T11:46:58.698Z,99234.50
2022-12-04T11:48:04.302Z,99233.08
2022-12-04T11:49:06.076Z,99228.91
2022-12-04T11:50:18.979Z,99229.45
2022-12-04T11:51:37.533Z,99227.32
2022-12-04T11:52:59.243Z,99226.66
2022-12-04T11:54:13.672Z,99228.01
2022-12-04T11:55:28.867Z,99229.16
2022-12-04T11:56:40.024Z,99227.04
2022-12-04T11:58:12.139Z,99229.64
2022-12-04T11:59:44.471Z,99232.91
2022-12-04T12:00:56.499Z,99232.98
2022-12-04T12:02:36.060Z,99237.98
2022-12-04T12:03:56.475Z,99239.14
2022-12-04T12:05:29.728Z,99238.41
2022-12-04T12:06:55.057Z,99240.54
2022-12-04T12:08:21.182Z,99238.02
2022-12-04T12:09:29.109Z,99239.29
2022-12-04T12:10:53.607Z,99239.05
2022-12-04T12:12:01.330Z,99241.14
2022-12-04T12:13:21.171Z,99239.23
2022-12-04T12:14:41.181Z,99239.95
2022-12-04T12:16:04.772Z,99238.34
2022-12-04T12:17:24.511Z,99237.27
2022-12-04T12:18:56.864Z,99241.48
2022-12-04T12:20:18.565Z,99239.65
2022-12-04T12:21:33.786Z,99239.36
2022-12-04T12:23:22.388Z,99234.40
2022-12-04T12:24:32.211Z,99235.58
2022-12-04T12:26:11.095Z,99234.39
2022-12-04T12:27:55.528Z,99234.40
2022-12-04T12:29:17.037Z,99235.95
2022-12-04T12:30:21.621Z,99235.59
2022-12-04T12:31:51.483Z,99233.73
2022-12-04T12:33:04.884Z,99233.81
2022-12-04T12:34:40.365Z,99232.87
2022-12-04T12:36:07.965Z,99231.64
2022-12-04T12:37:20.404Z,99229.55
2022-12-04T12:38:28.121Z,99228.33
2022-12-04T12:39:43.637Z,99230.89
2022-12-04T12:40:54.819Z,99232.88
2022-12-04T12:42:01.204Z,99233.29
2022-12-04T12:43:11.473Z,99231.27
2022-12-04T12:44:34.737Z,99231.94
2022-12-04T12:45:58.915Z,99231.16
2022-12-04T12:47:09.301Z,99234.44
2022-12-04T12:48:25.294Z,99228.64
2022-12-04T12:49:36.382Z,99226.30
2022-12-04T12:50:47.604Z,99225.25
2022-12-04T12:52:12.889Z,99225.05
2022-12-04T12:53:24.831Z,99226.96
2022-12-04T12:54:52.046Z,99227.30
2022-12-04T12:55:58.239Z,99229.64
2022-12-04T12:57:11.912Z,99232.11
2022-12-04T12:58:29.990Z,99226.17
2022-12-04T12:59:34.139Z,99225.27
2022-12-04T13:00:46.781Z,99223.83
2022-12-04T13:02:02.318Z,99224.73
2022-12-04T13:03:28.116Z,99227.12
2022-12-04T13:04:40.728Z,99225.91
2022-12-04T13:05:51.979Z,99226.59
2022-12-04T13:07:06.763Z,99225.05
2022-12-04T13:08:25.837Z,99229.67
2022-12-04T13:09:38.394Z,99228.08
2022-12-04T13:11:06.005Z,99229.38
2022-12-04T13:12:16.066Z,99231.34
2022-12-04T13:13:27.383Z,99230.69
2022-12-04T13:14:29.256Z,99226.12
2022-12-04T13:15:50.731Z,99223.42
2022-12-04T13:17:01.149Z,99221.66
2022-12-04T13:18:07.539Z,99218.63
2022-12-04T13:19:31.470Z,99213.59
2022-12-04T13:20:44.486Z,99210.95
2022-12-04T13:22:11.650Z,99209.84